sensor_id;sensor_type;location;lat;lon;timestamp;temperature;humidity
65972;SHT31;52726;48.852;9.152;2023-03-01T00:01:16;-2.23;82.01
65972;SHT31;52726;48.852;9.152;2023-03-01T00:03:42;-2.30;81.80
65972;SHT31;52726;48.852;9.152;2023-03-01T00:06:08;-2.21;81.43
65972;SHT31;52726;48.852;9.152;2023-03-01T00:08:33;-2.19;81.30
65972;SHT31;52726;48.852;9.152;2023-03-01T00:11:04;-2.29;81.54
65972;SHT31;52726;48.852;9.152;2023-03-01T00:13:37;-2.35;81.96
65972;SHT31;52726;48.852;9.152;2023-03-01T00:16:10;-2.42;82.20
65972;SHT31;52726;48.852;9.152;2023-03-01T00:19:00;-2.43;82.52
65972;SHT31;52726;48.852;9.152;2023-03-01T00:21:35;-2.43;82.27
65972;SHT31;52726;48.852;9.152;2023-03-01T00:24:17;-2.45;82.17
65972;SHT31;52726;48.852;9.152;2023-03-01T00:26:55;-2.45;81.99
65972;SHT31;52726;48.852;9.152;2023-03-01T00:29:39;-2.33;82.02
65972;SHT31;52726;48.852;9.152;2023-03-01T00:32:30;-2.50;81.96
65972;SHT31;52726;48.852;9.152;2023-03-01T00:35:22;-2.53;82.02
65972;SHT31;52726;48.852;9.152;2023-03-01T00:37:53;-2.61;82.28
65972;SHT31;52726;48.852;9.152;2023-03-01T00:41:10;-2.64;82.51
65972;SHT31;52726;48.852;9.152;2023-03-01T00:44:03;-2.58;83.00
65972;SHT31;52726;48.852;9.152;2023-03-01T00:47:01;-2.54;81.97
65972;SHT31;52726;48.852;9.152;2023-03-01T00:49:45;-2.61;82.25
65972;SHT31;52726;48.852;9.152;2023-03-01T00:52:57;-2.74;81.86
65972;SHT31;52726;48.852;9.152;2023-03-01T00:55:41;-2.85;82.63
65972;SHT31;52726;48.852;9.152;2023-03-01T00:59:11;-2.95;82.94
65972;SHT31;52726;48.852;9.152;2023-03-01T01:02:03;-3.09;83.28
65972;SHT31;52726;48.852;9.152;2023-03-01T01:05:34;-3.13;83.95
65972;SHT31;52726;48.852;9.152;2023-03-01T01:09:11;-3.12;84.19
65972;SHT31;52726;48.852;9.152;2023-03-01T01:12:26;-3.22;83.94
65972;SHT31;52726;48.852;9.152;2023-03-01T01:15:05;-3.22;84.49
65972;SHT31;52726;48.852;9.152;2023-03-01T01:18:16;-3.16;84.68
65972;SHT31;52726;48.852;9.152;2023-03-01T01:20:42;-3.19;84.14
65972;SHT31;52726;48.852;9.152;2023-03-01T01:23:07;-3.26;84.48
65972;SHT31;52726;48.852;9.152;2023-03-01T01:25:35;-3.20;84.62
65972;SHT31;52726;48.852;9.152;2023-03-01T01:28:00;-3.23;84.26
65972;SHT31;52726;48.852;9.152;2023-03-01T01:30:26;-3.26;84.63
65972;SHT31;52726;48.852;9.152;2023-03-01T01:32:51;-3.31;84.65
65972;SHT31;52726;48.852;9.152;2023-03-01T01:35:16;-3.31;84.78
65972;SHT31;52726;48.852;9.152;2023-03-01T01:37:42;-3.31;84.74
65972;SHT31;52726;48.852;9.152;2023-03-01T01:40:11;-3.33;84.73
65972;SHT31;52726;48.852;9.152;2023-03-01T01:42:36;-3.40;84.61
65972;SHT31;52726;48.852;9.152;2023-03-01T01:45:35;-3.44;85.17
65972;SHT31;52726;48.852;9.152;2023-03-01T01:48:06;-3.43;85.58
65972;SHT31;52726;48.852;9.152;2023-03-01T01:50:38;-3.44;85.33
65972;SHT31;52726;48.852;9.152;2023-03-01T01:53:16;-3.43;85.36
65972;SHT31;52726;48.852;9.152;2023-03-01T01:55:45;-3.43;85.35
65972;SHT31;52726;48.852;9.152;2023-03-01T01:58:15;-3.36;85.65
65972;SHT31;52726;48.852;9.152;2023-03-01T02:00:40;-3.38;85.18
65972;SHT31;52726;48.852;9.152;2023-03-01T02:03:10;-3.31;85.15
65972;SHT31;52726;48.852;9.152;2023-03-01T02:08:06;-3.25;85.16
65972;SHT31;52726;48.852;9.152;2023-03-01T02:10:34;-3.23;85.01
65972;SHT31;52726;48.852;9.152;2023-03-01T02:13:00;-3.23;84.68
65972;SHT31;52726;48.852;9.152;2023-03-01T02:15:26;-3.23;84.97
65972;SHT31;52726;48.852;9.152;2023-03-01T02:17:52;-3.17;85.23
65972;SHT31;52726;48.852;9.152;2023-03-01T02:22:49;-3.12;84.67
65972;SHT31;52726;48.852;9.152;2023-03-01T02:28:36;-3.06;85.31
65972;SHT31;52726;48.852;9.152;2023-03-01T02:31:03;-3.06;84.86
65972;SHT31;52726;48.852;9.152;2023-03-01T02:33:48;-2.98;85.24
65972;SHT31;52726;48.852;9.152;2023-03-01T02:36:17;-2.91;85.21
65972;SHT31;52726;48.852;9.152;2023-03-01T02:38:43;-2.80;84.91
65972;SHT31;52726;48.852;9.152;2023-03-01T02:41:12;-2.64;84.59
65972;SHT31;52726;48.852;9.152;2023-03-01T02:43:39;-2.54;84.15
65972;SHT31;52726;48.852;9.152;2023-03-01T02:46:19;-2.45;83.79
65972;SHT31;52726;48.852;9.152;2023-03-01T02:48:50;-2.42;84.15
65972;SHT31;52726;48.852;9.152;2023-03-01T02:51:38;-2.35;83.98
65972;SHT31;52726;48.852;9.152;2023-03-01T02:56:42;-2.29;83.41
65972;SHT31;52726;48.852;9.152;2023-03-01T02:59:09;-2.32;83.45
65972;SHT31;52726;48.852;9.152;2023-03-01T03:01:35;-2.32;83.71
65972;SHT31;52726;48.852;9.152;2023-03-01T03:04:13;-2.26;83.81
65972;SHT31;52726;48.852;9.152;2023-03-01T03:06:42;-2.22;83.67
65972;SHT31;52726;48.852;9.152;2023-03-01T03:09:08;-2.18;83.39
65972;SHT31;52726;48.852;9.152;2023-03-01T03:11:33;-2.18;83.66
65972;SHT31;52726;48.852;9.152;2023-03-01T03:13:58;-2.15;83.58
65972;SHT31;52726;48.852;9.152;2023-03-01T03:16:24;-2.13;83.77
65972;SHT31;52726;48.852;9.152;2023-03-01T03:18:50;-2.10;83.54
65972;SHT31;52726;48.852;9.152;2023-03-01T03:21:16;-2.05;83.64
65972;SHT31;52726;48.852;9.152;2023-03-01T03:23:43;-2.02;83.56
65972;SHT31;52726;48.852;9.152;2023-03-01T03:26:08;-2.02;83.67
65972;SHT31;52726;48.852;9.152;2023-03-01T03:28:34;-1.95;83.42
65972;SHT31;52726;48.852;9.152;2023-03-01T03:31:00;-1.87;83.31
65972;SHT31;52726;48.852;9.152;2023-03-01T03:33:30;-1.57;81.39
65972;SHT31;52726;48.852;9.152;2023-03-01T03:35:55;-1.38;80.59
65972;SHT31;52726;48.852;9.152;2023-03-01T03:38:22;-1.38;80.67
65972;SHT31;52726;48.852;9.152;2023-03-01T03:40:51;-1.32;80.69
65972;SHT31;52726;48.852;9.152;2023-03-01T03:43:19;-1.33;80.92
65972;SHT31;52726;48.852;9.152;2023-03-01T03:45:46;-1.30;80.49
65972;SHT31;52726;48.852;9.152;2023-03-01T03:48:12;-1.29;80.50
65972;SHT31;52726;48.852;9.152;2023-03-01T03:50:39;-1.20;80.25
65972;SHT31;52726;48.852;9.152;2023-03-01T03:55:55;-1.03;78.91
65972;SHT31;52726;48.852;9.152;2023-03-01T03:58:23;-1.05;79.15
65972;SHT31;52726;48.852;9.152;2023-03-01T04:00:50;-0.98;78.73
65972;SHT31;52726;48.852;9.152;2023-03-01T04:03:17;-0.99;78.73
65972;SHT31;52726;48.852;9.152;2023-03-01T04:05:44;-0.95;78.88
65972;SHT31;52726;48.852;9.152;2023-03-01T04:08:10;-0.96;79.08
65972;SHT31;52726;48.852;9.152;2023-03-01T04:10:41;-0.94;78.92
65972;SHT31;52726;48.852;9.152;2023-03-01T04:13:09;-0.94;78.94
65972;SHT31;52726;48.852;9.152;2023-03-01T04:15:35;-0.95;78.90
65972;SHT31;52726;48.852;9.152;2023-03-01T04:18:01;-0.91;78.65
65972;SHT31;52726;48.852;9.152;2023-03-01T04:20:29;-0.84;78.27
65972;SHT31;52726;48.852;9.152;2023-03-01T04:23:09;-0.77;77.98
65972;SHT31;52726;48.852;9.152;2023-03-01T04:25:45;-0.68;77.31
65972;SHT31;52726;48.852;9.152;2023-03-01T04:28:11;-0.73;77.67
65972;SHT31;52726;48.852;9.152;2023-03-01T04:30:38;-0.71;77.60
65972;SHT31;52726;48.852;9.152;2023-03-01T04:33:05;-0.75;78.34
65972;SHT31;52726;48.852;9.152;2023-03-01T04:35:31;-0.70;77.96
65972;SHT31;52726;48.852;9.152;2023-03-01T04:37:57;-0.70;77.64
65972;SHT31;52726;48.852;9.152;2023-03-01T04:40:23;-0.77;78.25
65972;SHT31;52726;48.852;9.152;2023-03-01T04:42:48;-0.74;78.05
65972;SHT31;52726;48.852;9.152;2023-03-01T04:45:14;-0.77;78.08
65972;SHT31;52726;48.852;9.152;2023-03-01T04:47:43;-0.77;78.45
65972;SHT31;52726;48.852;9.152;2023-03-01T04:50:11;-0.83;78.93
65972;SHT31;52726;48.852;9.152;2023-03-01T04:52:37;-0.84;79.07
65972;SHT31;52726;48.852;9.152;2023-03-01T04:55:03;-0.85;79.14
65972;SHT31;52726;48.852;9.152;2023-03-01T04:57:29;-0.87;79.39
65972;SHT31;52726;48.852;9.152;2023-03-01T04:59:55;-0.85;79.29
65972;SHT31;52726;48.852;9.152;2023-03-01T05:02:20;-0.85;79.88
65972;SHT31;52726;48.852;9.152;2023-03-01T05:04:45;-0.89;79.30
65972;SHT31;52726;48.852;9.152;2023-03-01T05:07:11;-0.89;79.61
65972;SHT31;52726;48.852;9.152;2023-03-01T05:09:38;-0.85;79.06
65972;SHT31;52726;48.852;9.152;2023-03-01T05:12:03;-0.84;79.15
65972;SHT31;52726;48.852;9.152;2023-03-01T05:14:29;-0.80;78.72
65972;SHT31;52726;48.852;9.152;2023-03-01T05:16:54;-0.81;78.64
65972;SHT31;52726;48.852;9.152;2023-03-01T05:19:19;-0.78;78.95
65972;SHT31;52726;48.852;9.152;2023-03-01T05:21:48;-0.80;78.80
65972;SHT31;52726;48.852;9.152;2023-03-01T05:24:35;-0.81;78.96
65972;SHT31;52726;48.852;9.152;2023-03-01T05:27:01;-0.80;78.66
65972;SHT31;52726;48.852;9.152;2023-03-01T05:29:28;-0.81;79.23
65972;SHT31;52726;48.852;9.152;2023-03-01T05:31:56;-0.81;79.15
65972;SHT31;52726;48.852;9.152;2023-03-01T05:34:31;-0.83;79.86
65972;SHT31;52726;48.852;9.152;2023-03-01T05:36:56;-0.84;79.09
65972;SHT31;52726;48.852;9.152;2023-03-01T05:39:24;-0.85;79.17
65972;SHT31;52726;48.852;9.152;2023-03-01T05:41:57;-0.78;78.85
65972;SHT31;52726;48.852;9.152;2023-03-01T05:44:23;-0.74;78.53
65972;SHT31;52726;48.852;9.152;2023-03-01T05:46:49;-0.77;78.50
65972;SHT31;52726;48.852;9.152;2023-03-01T05:49:15;-0.78;78.68
65972;SHT31;52726;48.852;9.152;2023-03-01T05:51:42;-0.77;78.64
65972;SHT31;52726;48.852;9.152;2023-03-01T05:54:08;-0.75;78.60
65972;SHT31;52726;48.852;9.152;2023-03-01T05:56:35;-0.75;78.74
65972;SHT31;52726;48.852;9.152;2023-03-01T05:59:01;-0.75;78.76
65972;SHT31;52726;48.852;9.152;2023-03-01T06:01:27;-0.74;78.58
65972;SHT31;52726;48.852;9.152;2023-03-01T06:03:52;-0.74;78.59
65972;SHT31;52726;48.852;9.152;2023-03-01T06:06:18;-0.85;81.08
65972;SHT31;52726;48.852;9.152;2023-03-01T06:08:57;-0.96;81.84
65972;SHT31;52726;48.852;9.152;2023-03-01T06:11:33;-1.02;82.42
65972;SHT31;52726;48.852;9.152;2023-03-01T06:14:23;-1.11;82.76
65972;SHT31;52726;48.852;9.152;2023-03-01T06:16:58;-1.15;82.89
65972;SHT31;52726;48.852;9.152;2023-03-01T06:19:24;-1.22;82.72
65972;SHT31;52726;48.852;9.152;2023-03-01T06:22:08;-1.26;82.95
65972;SHT31;52726;48.852;9.152;2023-03-01T06:24:59;-1.30;83.33
65972;SHT31;52726;48.852;9.152;2023-03-01T06:27:53;-1.35;83.19
65972;SHT31;52726;48.852;9.152;2023-03-01T06:30:20;-1.30;83.91
65972;SHT31;52726;48.852;9.152;2023-03-01T06:32:46;-1.28;83.51
65972;SHT31;52726;48.852;9.152;2023-03-01T06:35:16;-1.22;83.01
65972;SHT31;52726;48.852;9.152;2023-03-01T06:38:05;-1.20;82.74
65972;SHT31;52726;48.852;9.152;2023-03-01T06:41:08;-1.28;83.45
65972;SHT31;52726;48.852;9.152;2023-03-01T06:43:33;-1.38;83.48
65972;SHT31;52726;48.852;9.152;2023-03-01T06:46:04;-1.42;83.17
65972;SHT31;52726;48.852;9.152;2023-03-01T06:48:30;-1.49;83.08
65972;SHT31;52726;48.852;9.152;2023-03-01T06:50:58;-1.50;82.95
65972;SHT31;52726;48.852;9.152;2023-03-01T06:53:24;-1.53;82.44
65972;SHT31;52726;48.852;9.152;2023-03-01T06:55:54;-1.32;82.10
65972;SHT31;52726;48.852;9.152;2023-03-01T06:58:32;-1.08;81.17
65972;SHT31;52726;48.852;9.152;2023-03-01T07:01:08;-0.83;79.98
65972;SHT31;52726;48.852;9.152;2023-03-01T07:03:34;-0.49;78.80
65972;SHT31;52726;48.852;9.152;2023-03-01T07:06:00;-0.29;77.83
65972;SHT31;52726;48.852;9.152;2023-03-01T07:08:26;0.08;77.25
65972;SHT31;52726;48.852;9.152;2023-03-01T07:10:58;0.29;75.74
65972;SHT31;52726;48.852;9.152;2023-03-01T07:13:24;0.67;74.59
65972;SHT31;52726;48.852;9.152;2023-03-01T07:16:08;1.11;72.12
65972;SHT31;52726;48.852;9.152;2023-03-01T07:18:46;1.28;70.96
65972;SHT31;52726;48.852;9.152;2023-03-01T07:21:22;1.53;70.24
65972;SHT31;52726;48.852;9.152;2023-03-01T07:24:03;1.59;67.51
65972;SHT31;52726;48.852;9.152;2023-03-01T07:26:28;1.63;69.70
65972;SHT31;52726;48.852;9.152;2023-03-01T07:28:59;1.32;70.34
65972;SHT31;52726;48.852;9.152;2023-03-01T07:31:59;1.95;70.25
65972;SHT31;52726;48.852;9.152;2023-03-01T07:34:25;2.26;67.11
65972;SHT31;52726;48.852;9.152;2023-03-01T07:36:50;2.25;67.06
65972;SHT31;52726;48.852;9.152;2023-03-01T07:39:15;1.85;68.03
65972;SHT31;52726;48.852;9.152;2023-03-01T07:41:41;2.66;64.68
65972;SHT31;52726;48.852;9.152;2023-03-01T07:44:06;3.01;63.64
65972;SHT31;52726;48.852;9.152;2023-03-01T07:46:32;2.93;63.50
65972;SHT31;52726;48.852;9.152;2023-03-01T07:48:57;3.03;63.91
65972;SHT31;52726;48.852;9.152;2023-03-01T07:51:23;2.96;63.80
65972;SHT31;52726;48.852;9.152;2023-03-01T07:53:49;3.08;63.75
65972;SHT31;52726;48.852;9.152;2023-03-01T07:56:15;3.46;61.91
65972;SHT31;52726;48.852;9.152;2023-03-01T07:58:43;2.84;63.88
65972;SHT31;52726;48.852;9.152;2023-03-01T08:01:14;3.15;64.14
65972;SHT31;52726;48.852;9.152;2023-03-01T08:03:40;3.60;61.97
65972;SHT31;52726;48.852;9.152;2023-03-01T08:06:08;4.05;59.76
65972;SHT31;52726;48.852;9.152;2023-03-01T08:08:34;3.84;62.79
65972;SHT31;52726;48.852;9.152;2023-03-01T08:11:02;3.79;62.02
65972;SHT31;52726;48.852;9.152;2023-03-01T08:13:28;4.17;61.12
65972;SHT31;52726;48.852;9.152;2023-03-01T08:15:54;3.77;63.04
65972;SHT31;52726;48.852;9.152;2023-03-01T08:18:20;4.15;61.07
65972;SHT31;52726;48.852;9.152;2023-03-01T08:20:46;4.48;59.52
65972;SHT31;52726;48.852;9.152;2023-03-01T08:23:11;4.41;60.27
65972;SHT31;52726;48.852;9.152;2023-03-01T08:25:37;3.79;61.63
65972;SHT31;52726;48.852;9.152;2023-03-01T08:28:03;3.67;61.32
65972;SHT31;52726;48.852;9.152;2023-03-01T08:30:28;4.10;61.96
65972;SHT31;52726;48.852;9.152;2023-03-01T08:32:54;4.59;59.80
65972;SHT31;52726;48.852;9.152;2023-03-01T08:35:20;5.14;56.54
65972;SHT31;52726;48.852;9.152;2023-03-01T08:37:45;4.86;56.82
65972;SHT31;52726;48.852;9.152;2023-03-01T08:40:11;4.75;57.15
65972;SHT31;52726;48.852;9.152;2023-03-01T08:42:39;4.79;57.04
65972;SHT31;52726;48.852;9.152;2023-03-01T08:45:05;4.87;57.57
65972;SHT31;52726;48.852;9.152;2023-03-01T08:47:30;5.47;55.20
65972;SHT31;52726;48.852;9.152;2023-03-01T08:49:55;5.00;56.45
65972;SHT31;52726;48.852;9.152;2023-03-01T08:52:21;4.94;56.66
65972;SHT31;52726;48.852;9.152;2023-03-01T08:54:49;5.04;56.35
65972;SHT31;52726;48.852;9.152;2023-03-01T08:57:15;4.96;58.20
65972;SHT31;52726;48.852;9.152;2023-03-01T08:59:40;5.39;55.98
65972;SHT31;52726;48.852;9.152;2023-03-01T09:02:12;5.07;58.11
65972;SHT31;52726;48.852;9.152;2023-03-01T09:04:37;4.61;58.38
65972;SHT31;52726;48.852;9.152;2023-03-01T09:07:03;4.75;58.42
65972;SHT31;52726;48.852;9.152;2023-03-01T09:09:29;4.35;60.01
65972;SHT31;52726;48.852;9.152;2023-03-01T09:11:54;4.83;58.68
65972;SHT31;52726;48.852;9.152;2023-03-01T09:14:19;5.14;57.90
65972;SHT31;52726;48.852;9.152;2023-03-01T09:16:45;5.20;55.82
65972;SHT31;52726;48.852;9.152;2023-03-01T09:19:10;4.79;57.19
65972;SHT31;52726;48.852;9.152;2023-03-01T09:21:37;5.08;57.63
65972;SHT31;52726;48.852;9.152;2023-03-01T09:24:13;4.27;59.28
65972;SHT31;52726;48.852;9.152;2023-03-01T09:26:39;4.97;57.87
65972;SHT31;52726;48.852;9.152;2023-03-01T09:29:04;4.97;56.52
65972;SHT31;52726;48.852;9.152;2023-03-01T09:31:29;4.89;57.19
65972;SHT31;52726;48.852;9.152;2023-03-01T09:33:55;4.87;56.57
65972;SHT31;52726;48.852;9.152;2023-03-01T09:36:22;4.55;58.21
65972;SHT31;52726;48.852;9.152;2023-03-01T09:38:54;4.35;58.66
65972;SHT31;52726;48.852;9.152;2023-03-01T09:43:51;4.45;59.52
65972;SHT31;52726;48.852;9.152;2023-03-01T09:46:20;4.59;58.70
65972;SHT31;52726;48.852;9.152;2023-03-01T09:48:52;4.40;58.37
65972;SHT31;52726;48.852;9.152;2023-03-01T09:53:51;4.61;59.59
65972;SHT31;52726;48.852;9.152;2023-03-01T09:56:24;5.16;58.37
65972;SHT31;52726;48.852;9.152;2023-03-01T10:07:32;4.11;60.78
65972;SHT31;52726;48.852;9.152;2023-03-01T10:10:22;4.01;60.93
65972;SHT31;52726;48.852;9.152;2023-03-01T10:12:55;3.75;62.60
65972;SHT31;52726;48.852;9.152;2023-03-01T10:15:44;3.65;62.98
65972;SHT31;52726;48.852;9.152;2023-03-01T10:18:35;3.62;62.77
65972;SHT31;52726;48.852;9.152;2023-03-01T10:21:15;3.89;61.40
65972;SHT31;52726;48.852;9.152;2023-03-01T10:23:41;3.75;62.43
65972;SHT31;52726;48.852;9.152;2023-03-01T10:26:32;3.98;60.52
65972;SHT31;52726;48.852;9.152;2023-03-01T10:29:09;4.13;62.06
65972;SHT31;52726;48.852;9.152;2023-03-01T10:34:11;4.03;60.99
65972;SHT31;52726;48.852;9.152;2023-03-01T10:37:10;4.17;61.32
65972;SHT31;52726;48.852;9.152;2023-03-01T10:40:14;3.98;62.53
65972;SHT31;52726;48.852;9.152;2023-03-01T10:42:47;3.97;62.51
65972;SHT31;52726;48.852;9.152;2023-03-01T10:47:42;4.38;60.55
65972;SHT31;52726;48.852;9.152;2023-03-01T10:50:19;4.52;59.72
65972;SHT31;52726;48.852;9.152;2023-03-01T10:53:02;4.35;60.77
65972;SHT31;52726;48.852;9.152;2023-03-01T10:55:39;4.21;61.11
65972;SHT31;52726;48.852;9.152;2023-03-01T11:00:57;4.73;59.52
65972;SHT31;52726;48.852;9.152;2023-03-01T11:08:36;5.26;56.99
65972;SHT31;52726;48.852;9.152;2023-03-01T11:11:22;4.99;58.70
65972;SHT31;52726;48.852;9.152;2023-03-01T11:13:59;5.07;58.73
65972;SHT31;52726;48.852;9.152;2023-03-01T11:23:04;5.54;56.61
65972;SHT31;52726;48.852;9.152;2023-03-01T11:25:35;5.44;56.98
65972;SHT31;52726;48.852;9.152;2023-03-01T11:28:04;5.65;56.43
65972;SHT31;52726;48.852;9.152;2023-03-01T11:31:08;5.49;57.24
65972;SHT31;52726;48.852;9.152;2023-03-01T11:36:27;5.73;58.05
65972;SHT31;52726;48.852;9.152;2023-03-01T11:38:55;5.87;56.91
65972;SHT31;52726;48.852;9.152;2023-03-01T11:41:25;6.18;55.22
65972;SHT31;52726;48.852;9.152;2023-03-01T11:44:03;6.13;55.26
65972;SHT31;52726;48.852;9.152;2023-03-01T11:47:04;6.20;54.79
65972;SHT31;52726;48.852;9.152;2023-03-01T11:49:49;6.21;54.97
65972;SHT31;52726;48.852;9.152;2023-03-01T11:55:30;6.16;55.15
65972;SHT31;52726;48.852;9.152;2023-03-01T12:07:00;6.25;54.94
65972;SHT31;52726;48.852;9.152;2023-03-01T12:12:27;6.10;56.23
65972;SHT31;52726;48.852;9.152;2023-03-01T12:17:47;6.20;57.55
65972;SHT31;52726;48.852;9.152;2023-03-01T12:37:13;6.53;56.62
65972;SHT31;52726;48.852;9.152;2023-03-01T12:42:41;6.42;56.03
65972;SHT31;52726;48.852;9.152;2023-03-01T12:50:52;6.53;57.00
65972;SHT31;52726;48.852;9.152;2023-03-01T12:53:40;6.65;56.77
65972;SHT31;52726;48.852;9.152;2023-03-01T12:56:12;6.68;55.80
65972;SHT31;52726;48.852;9.152;2023-03-01T13:01:53;6.72;55.07
65972;SHT31;52726;48.852;9.152;2023-03-01T13:10:00;7.00;54.63
65972;SHT31;52726;48.852;9.152;2023-03-01T13:20:25;7.17;54.75
65972;SHT31;52726;48.852;9.152;2023-03-01T13:26:27;7.23;54.24
65972;SHT31;52726;48.852;9.152;2023-03-01T13:29:26;7.07;54.21
65972;SHT31;52726;48.852;9.152;2023-03-01T13:31:56;7.19;55.28
65972;SHT31;52726;48.852;9.152;2023-03-01T13:34:43;7.26;55.33
65972;SHT31;52726;48.852;9.152;2023-03-01T13:37:10;7.23;54.58
65972;SHT31;52726;48.852;9.152;2023-03-01T13:42:44;7.27;55.03
65972;SHT31;52726;48.852;9.152;2023-03-01T13:45:21;7.30;55.08
65972;SHT31;52726;48.852;9.152;2023-03-01T13:47:52;7.34;55.80
65972;SHT31;52726;48.852;9.152;2023-03-01T13:50:29;7.23;54.75
65972;SHT31;52726;48.852;9.152;2023-03-01T13:53:04;7.40;53.56
65972;SHT31;52726;48.852;9.152;2023-03-01T13:55:52;7.28;54.31
65972;SHT31;52726;48.852;9.152;2023-03-01T13:58:26;7.44;53.27
65972;SHT31;52726;48.852;9.152;2023-03-01T14:01:00;7.35;54.15
65972;SHT31;52726;48.852;9.152;2023-03-01T14:03:27;7.20;54.22
65972;SHT31;52726;48.852;9.152;2023-03-01T14:06:08;7.20;55.09
65972;SHT31;52726;48.852;9.152;2023-03-01T14:08:35;7.09;55.66
65972;SHT31;52726;48.852;9.152;2023-03-01T14:19:16;7.20;55.56
65972;SHT31;52726;48.852;9.152;2023-03-01T14:21:43;7.24;55.79
65972;SHT31;52726;48.852;9.152;2023-03-01T14:24:21;7.28;56.09
65972;SHT31;52726;48.852;9.152;2023-03-01T14:26:48;7.24;55.18
65972;SHT31;52726;48.852;9.152;2023-03-01T14:29:33;7.09;55.39
65972;SHT31;52726;48.852;9.152;2023-03-01T14:32:19;7.14;57.05
65972;SHT31;52726;48.852;9.152;2023-03-01T14:34:46;7.28;55.71
65972;SHT31;52726;48.852;9.152;2023-03-01T14:37:25;7.37;55.04
65972;SHT31;52726;48.852;9.152;2023-03-01T14:39:52;7.30;54.76
65972;SHT31;52726;48.852;9.152;2023-03-01T14:42:19;7.31;55.47
65972;SHT31;52726;48.852;9.152;2023-03-01T14:44:47;7.32;54.81
65972;SHT31;52726;48.852;9.152;2023-03-01T14:47:27;7.35;54.86
65972;SHT31;52726;48.852;9.152;2023-03-01T14:50:01;7.31;55.61
65972;SHT31;52726;48.852;9.152;2023-03-01T14:52:34;7.24;55.25
65972;SHT31;52726;48.852;9.152;2023-03-01T14:55:01;7.24;55.36
65972;SHT31;52726;48.852;9.152;2023-03-01T14:57:27;7.30;55.62
65972;SHT31;52726;48.852;9.152;2023-03-01T14:59:55;7.41;53.40
65972;SHT31;52726;48.852;9.152;2023-03-01T15:02:23;7.27;54.63
65972;SHT31;52726;48.852;9.152;2023-03-01T15:04:52;7.27;55.77
65972;SHT31;52726;48.852;9.152;2023-03-01T15:07:18;7.17;55.55
65972;SHT31;52726;48.852;9.152;2023-03-01T15:09:44;7.14;55.96
65972;SHT31;52726;48.852;9.152;2023-03-01T15:14:55;7.01;55.68
65972;SHT31;52726;48.852;9.152;2023-03-01T15:17:35;7.01;55.45
65972;SHT31;52726;48.852;9.152;2023-03-01T15:20:06;6.97;55.77
65972;SHT31;52726;48.852;9.152;2023-03-01T15:22:44;6.97;56.07
65972;SHT31;52726;48.852;9.152;2023-03-01T15:25:22;6.96;56.36
65972;SHT31;52726;48.852;9.152;2023-03-01T15:27:50;7.00;56.70
65972;SHT31;52726;48.852;9.152;2023-03-01T15:30:42;6.89;55.87
65972;SHT31;52726;48.852;9.152;2023-03-01T15:35:51;6.76;56.51
65972;SHT31;52726;48.852;9.152;2023-03-01T15:40:51;6.68;56.65
65972;SHT31;52726;48.852;9.152;2023-03-01T15:43:39;6.64;56.40
65972;SHT31;52726;48.852;9.152;2023-03-01T15:46:05;6.68;56.93
65972;SHT31;52726;48.852;9.152;2023-03-01T15:48:30;6.62;56.44
65972;SHT31;52726;48.852;9.152;2023-03-01T15:50:59;6.62;55.97
65972;SHT31;52726;48.852;9.152;2023-03-01T15:53:26;6.56;56.40
65972;SHT31;52726;48.852;9.152;2023-03-01T15:55:53;6.51;56.55
65972;SHT31;52726;48.852;9.152;2023-03-01T15:58:23;6.52;57.04
65972;SHT31;52726;48.852;9.152;2023-03-01T16:00:51;6.51;56.36
65972;SHT31;52726;48.852;9.152;2023-03-01T16:03:21;6.49;57.31
65972;SHT31;52726;48.852;9.152;2023-03-01T16:05:49;6.45;56.52
65972;SHT31;52726;48.852;9.152;2023-03-01T16:08:16;6.40;56.72
65972;SHT31;52726;48.852;9.152;2023-03-01T16:10:42;6.37;57.03
65972;SHT31;52726;48.852;9.152;2023-03-01T16:13:11;6.40;56.78
65972;SHT31;52726;48.852;9.152;2023-03-01T16:15:37;6.28;57.01
65972;SHT31;52726;48.852;9.152;2023-03-01T16:18:04;6.25;57.13
65972;SHT31;52726;48.852;9.152;2023-03-01T16:20:31;6.25;57.19
65972;SHT31;52726;48.852;9.152;2023-03-01T16:23:05;6.16;57.78
65972;SHT31;52726;48.852;9.152;2023-03-01T16:25:51;6.11;58.11
65972;SHT31;52726;48.852;9.152;2023-03-01T16:28:17;6.04;58.65
65972;SHT31;52726;48.852;9.152;2023-03-01T16:30:46;5.93;58.81
65972;SHT31;52726;48.852;9.152;2023-03-01T16:33:42;5.82;59.87
65972;SHT31;52726;48.852;9.152;2023-03-01T16:36:11;5.73;59.34
65972;SHT31;52726;48.852;9.152;2023-03-01T16:38:38;5.76;59.36
65972;SHT31;52726;48.852;9.152;2023-03-01T16:41:04;5.69;59.99
65972;SHT31;52726;48.852;9.152;2023-03-01T16:43:50;5.56;59.92
65972;SHT31;52726;48.852;9.152;2023-03-01T16:50:40;5.31;61.39
65972;SHT31;52726;48.852;9.152;2023-03-01T17:05:04;5.06;61.35
65972;SHT31;52726;48.852;9.152;2023-03-01T17:08:10;4.73;63.08
65972;SHT31;52726;48.852;9.152;2023-03-01T17:14:25;4.30;65.10
65972;SHT31;52726;48.852;9.152;2023-03-01T17:17:49;3.93;65.77
65972;SHT31;52726;48.852;9.152;2023-03-01T17:24:08;3.56;67.33
65972;SHT31;52726;48.852;9.152;2023-03-01T17:27:08;3.45;67.75
65972;SHT31;52726;48.852;9.152;2023-03-01T17:37:11;2.87;69.90
65972;SHT31;52726;48.852;9.152;2023-03-01T17:40:47;2.70;70.03
65972;SHT31;52726;48.852;9.152;2023-03-01T17:44:06;2.81;69.85
65972;SHT31;52726;48.852;9.152;2023-03-01T17:51:07;2.66;70.68
65972;SHT31;52726;48.852;9.152;2023-03-01T17:54:21;2.59;70.82
65972;SHT31;52726;48.852;9.152;2023-03-01T18:01:31;2.39;71.46
65972;SHT31;52726;48.852;9.152;2023-03-01T18:04:38;2.36;71.85
65972;SHT31;52726;48.852;9.152;2023-03-01T18:11:49;2.15;72.03
65972;SHT31;52726;48.852;9.152;2023-03-01T18:15:32;1.94;72.66
65972;SHT31;52726;48.852;9.152;2023-03-01T18:22:05;1.93;72.92
65972;SHT31;52726;48.852;9.152;2023-03-01T18:42:59;1.50;74.14
65972;SHT31;52726;48.852;9.152;2023-03-01T18:46:07;1.55;73.95
65972;SHT31;52726;48.852;9.152;2023-03-01T18:53:13;1.39;75.12
65972;SHT31;52726;48.852;9.152;2023-03-01T18:59:50;1.22;75.72
65972;SHT31;52726;48.852;9.152;2023-03-01T19:02:22;1.15;75.70
65972;SHT31;52726;48.852;9.152;2023-03-01T19:05:06;1.08;75.72
65972;SHT31;52726;48.852;9.152;2023-03-01T19:07:59;1.02;75.75
65972;SHT31;52726;48.852;9.152;2023-03-01T19:10:29;0.99;75.92
65972;SHT31;52726;48.852;9.152;2023-03-01T19:13:38;0.97;76.10
65972;SHT31;52726;48.852;9.152;2023-03-01T19:16:29;0.97;76.01
65972;SHT31;52726;48.852;9.152;2023-03-01T19:19:15;0.89;76.11
65972;SHT31;52726;48.852;9.152;2023-03-01T19:22:13;0.88;76.16
65972;SHT31;52726;48.852;9.152;2023-03-01T19:25:03;0.85;76.14
65972;SHT31;52726;48.852;9.152;2023-03-01T19:28:30;0.84;76.31
65972;SHT31;52726;48.852;9.152;2023-03-01T19:31:23;0.83;76.42
65972;SHT31;52726;48.852;9.152;2023-03-01T19:34:13;0.78;76.66
65972;SHT31;52726;48.852;9.152;2023-03-01T19:36:52;0.76;76.79
65972;SHT31;52726;48.852;9.152;2023-03-01T19:39:50;0.73;76.94
65972;SHT31;52726;48.852;9.152;2023-03-01T19:42:46;0.66;77.06
65972;SHT31;52726;48.852;9.152;2023-03-01T19:45:14;0.61;77.15
65972;SHT31;52726;48.852;9.152;2023-03-01T19:48:20;0.57;77.69
65972;SHT31;52726;48.852;9.152;2023-03-01T19:50:54;0.56;77.70
65972;SHT31;52726;48.852;9.152;2023-03-01T19:53:38;0.52;77.52